createdAt,value
2019-03-21T00:01:42.870Z,77.43
2019-03-21T00:05:48.597Z,77.59
2019-03-21T00:10:31.922Z,77.66
2019-03-21T00:15:34.282Z,76.49
2019-03-21T00:19:40.043Z,76.89
2019-03-21T00:23:45.875Z,77.66
2019-03-21T00:27:51.549Z,77.89
2019-03-21T00:31:57.255Z,76.50
2019-03-21T00:36:14.302Z,75.44
2019-03-21T00:40:26.005Z,77.10
2019-03-21T00:44:31.764Z,77.71
2019-03-21T00:48:37.706Z,78.10
2019-03-21T00:52:43.581Z,78.79
2019-03-21T00:56:51.119Z,78.70
2019-03-21T01:00:57.375Z,78.15
2019-03-21T01:05:03.093Z,77.97
2019-03-21T01:09:10.542Z,78.53
2019-03-21T01:13:16.472Z,78.37
2019-03-21T01:17:41.494Z,78.56
2019-03-21T01:22:07.638Z,77.34
2019-03-21T01:26:13.395Z,77.49
2019-03-21T01:30:19.192Z,77.20
2019-03-21T01:34:25.318Z,77.98
2019-03-21T01:38:31.075Z,78.70
2019-03-21T01:42:36.882Z,75.72
2019-03-21T01:46:42.644Z,77.05
2019-03-21T01:50:48.409Z,77.76
2019-03-21T01:54:54.267Z,78.58
2019-03-21T01:59:05.364Z,78.04
2019-03-21T02:03:10.997Z,76.91
2019-03-21T02:07:16.658Z,77.42
2019-03-21T02:11:22.532Z,78.92
2019-03-21T02:15:31.462Z,79.46
2019-03-21T02:19:37.766Z,78.75
2019-03-21T02:23:43.505Z,78.78
2019-03-21T02:27:49.200Z,78.66
2019-03-21T02:31:54.838Z,78.01
2019-03-21T02:36:00.589Z,77.71
2019-03-21T02:40:08.362Z,76.66
2019-03-21T02:44:14.207Z,78.36
2019-03-21T02:48:20.145Z,78.89
2019-03-21T02:52:25.792Z,79.16
2019-03-21T02:56:31.557Z,79.01
2019-03-21T03:00:37.228Z,79.13
2019-03-21T03:04:43.006Z,79.22
2019-03-21T03:08:49.105Z,79.28
2019-03-21T03:12:54.717Z,78.90
2019-03-21T03:17:06.522Z,79.10
2019-03-21T03:21:12.259Z,79.84
2019-03-21T03:25:18.011Z,79.92
2019-03-21T03:29:23.667Z,79.91
2019-03-21T03:33:29.442Z,79.99
2019-03-21T03:37:54.010Z,78.12
2019-03-21T03:41:59.631Z,77.65
2019-03-21T03:46:24.131Z,78.79
2019-03-21T03:50:40.822Z,78.89
2019-03-21T03:54:46.634Z,79.56
2019-03-21T03:58:53.066Z,80.34
2019-03-21T04:02:58.765Z,80.91
2019-03-21T04:07:23.586Z,80.54
2019-03-21T04:11:29.366Z,80.67
2019-03-21T04:15:51.228Z,80.88
2019-03-21T04:19:49.551Z,80.20
2019-03-21T04:23:55.183Z,80.62
2019-03-21T04:28:01.467Z,80.82
2019-03-21T04:32:07.126Z,80.97
2019-03-21T04:36:12.789Z,80.94
2019-03-21T04:40:21.458Z,80.93
2019-03-21T04:44:27.244Z,80.97
2019-03-21T04:52:49.762Z,80.99
2019-03-21T04:56:55.672Z,80.95
2019-03-21T05:01:03.560Z,81.12
2019-03-21T05:05:28.425Z,81.09
2019-03-21T05:09:34.153Z,80.87
2019-03-21T05:13:39.854Z,80.81
2019-03-21T05:17:46.475Z,80.37
2019-03-21T05:22:11.026Z,80.16
2019-03-21T05:26:35.486Z,80.47
2019-03-21T05:30:44.607Z,80.48
2019-03-21T05:34:50.336Z,80.48
2019-03-21T05:38:56.353Z,80.75
2019-03-21T05:43:22.690Z,80.52
2019-03-21T05:47:39.270Z,80.35
2019-03-21T05:51:45.045Z,80.49
2019-03-21T05:55:50.743Z,80.38
2019-03-21T05:59:56.475Z,80.05
2019-03-21T06:04:02.310Z,80.30
2019-03-21T06:08:28.451Z,80.05
2019-03-21T06:17:30.931Z,79.73
2019-03-21T06:22:09.390Z,79.80
2019-03-21T06:26:37.542Z,79.59
2019-03-21T06:35:44.665Z,80.56
2019-03-21T06:40:32.986Z,80.25
2019-03-21T06:44:40.420Z,78.94
2019-03-21T06:48:46.086Z,77.56
2019-03-21T06:52:51.808Z,77.26
2019-03-21T07:01:20.689Z,76.20
2019-03-21T07:05:40.711Z,74.88
2019-03-21T07:23:07.679Z,72.74
2019-03-21T07:27:32.616Z,70.46
2019-03-21T07:31:38.380Z,70.46
2019-03-21T07:35:44.073Z,70.68
2019-03-21T07:39:49.813Z,70.14
2019-03-21T07:43:55.629Z,68.22
2019-03-21T07:48:01.233Z,68.83
2019-03-21T07:52:06.878Z,67.98
2019-03-21T07:56:12.518Z,67.93
2019-03-21T08:00:33.925Z,67.50
2019-03-21T08:04:39.595Z,67.00
2019-03-21T08:08:45.377Z,66.35
2019-03-21T08:12:51.065Z,66.48
2019-03-21T08:16:59.893Z,65.63
2019-03-21T08:21:05.624Z,64.40
2019-03-21T08:25:11.351Z,65.04
2019-03-21T08:29:18.438Z,63.69
2019-03-21T08:33:24.148Z,63.42
2019-03-21T08:37:29.924Z,62.54
2019-03-21T08:41:35.692Z,62.63
2019-03-21T08:45:41.436Z,60.19
2019-03-21T08:49:53.248Z,59.72
2019-03-21T08:53:57.712Z,57.48
2019-03-21T08:58:03.542Z,54.78
2019-03-21T09:02:09.212Z,52.04
2019-03-21T09:06:15.628Z,51.07
2019-03-21T09:10:27.170Z,56.29
2019-03-21T09:14:32.961Z,51.87
2019-03-21T09:18:39.990Z,50.88
2019-03-21T09:22:45.740Z,51.47
2019-03-21T09:26:51.388Z,51.77
2019-03-21T09:30:59.574Z,50.22
2019-03-21T09:35:05.619Z,53.30
2019-03-21T09:39:11.321Z,49.98
2019-03-21T09:43:17.024Z,50.65
2019-03-21T09:47:23.136Z,50.23
2019-03-21T09:51:31.066Z,49.54
2019-03-21T09:55:45.839Z,47.81
2019-03-21T09:59:51.709Z,47.92
2019-03-21T10:03:57.785Z,46.66
2019-03-21T10:08:03.712Z,50.24
2019-03-21T10:12:09.325Z,45.03
2019-03-21T10:20:46.115Z,46.55
2019-03-21T10:24:51.848Z,45.16
2019-03-21T10:28:57.648Z,45.87
2019-03-21T10:33:03.785Z,44.28
2019-03-21T10:37:09.497Z,41.86
2019-03-21T10:41:15.237Z,42.35
2019-03-21T10:45:20.899Z,41.29
2019-03-21T10:49:26.595Z,42.14
2019-03-21T10:53:32.639Z,40.96
2019-03-21T10:57:38.413Z,40.57
2019-03-21T11:01:44.202Z,40.73
2019-03-21T11:05:49.945Z,40.76
2019-03-21T11:09:55.840Z,41.26
2019-03-21T11:14:01.555Z,39.72
2019-03-21T11:18:07.239Z,39.93
2019-03-21T11:22:13.061Z,38.81
2019-03-21T11:26:37.592Z,39.05
2019-03-21T11:30:44.639Z,39.05
2019-03-21T11:34:50.306Z,37.28
2019-03-21T11:38:58.093Z,38.21
2019-03-21T11:43:08.558Z,37.52
2019-03-21T11:47:14.290Z,36.83
2019-03-21T11:51:20.089Z,39.12
2019-03-21T11:55:28.077Z,35.59
2019-03-21T11:59:46.476Z,35.28
2019-03-21T12:03:47.204Z,36.58
2019-03-21T12:07:53.222Z,36.81
2019-03-21T12:11:58.924Z,36.44
2019-03-21T12:16:04.719Z,38.53
2019-03-21T12:20:10.653Z,35.38
2019-03-21T12:24:16.385Z,35.80
2019-03-21T12:28:24.285Z,36.74
2019-03-21T12:32:36.814Z,37.12
2019-03-21T12:36:42.452Z,37.35
2019-03-21T12:40:48.170Z,39.24
2019-03-21T12:44:53.786Z,39.39
2019-03-21T12:48:59.518Z,35.37
2019-03-21T12:53:05.391Z,35.66
2019-03-21T12:57:11.044Z,35.87
2019-03-21T13:01:16.746Z,35.46
2019-03-21T13:05:29.071Z,36.09
2019-03-21T13:09:34.717Z,35.41
2019-03-21T13:13:40.496Z,37.48
2019-03-21T13:17:46.223Z,36.05
2019-03-21T13:21:51.934Z,38.87
2019-03-21T13:25:57.673Z,34.70
2019-03-21T13:30:03.930Z,34.10
2019-03-21T13:34:10.447Z,34.31
2019-03-21T13:42:50.155Z,33.96
2019-03-21T13:46:55.844Z,34.62
2019-03-21T13:51:01.834Z,33.69
2019-03-21T13:59:26.692Z,34.50
2019-03-21T14:03:32.443Z,29.79
2019-03-21T14:07:38.301Z,32.04
2019-03-21T14:11:43.944Z,32.25
2019-03-21T14:16:00.491Z,30.79
2019-03-21T14:20:07.327Z,32.26
2019-03-21T14:24:13.084Z,31.55
2019-03-21T14:28:18.986Z,27.75
2019-03-21T14:32:24.939Z,31.08
2019-03-21T14:36:33.009Z,34.18
2019-03-21T14:40:39.275Z,34.18
2019-03-21T14:44:45.318Z,36.11
2019-03-21T14:48:51.625Z,32.46
2019-03-21T14:52:58.214Z,34.45
2019-03-21T14:57:03.988Z,32.87
2019-03-21T15:01:09.815Z,29.90
2019-03-21T15:05:26.247Z,30.17
2019-03-21T15:09:31.914Z,36.10
2019-03-21T15:13:37.642Z,35.34
2019-03-21T15:17:43.423Z,34.79
2019-03-21T15:21:49.111Z,35.66
2019-03-21T15:25:54.953Z,35.23
2019-03-21T15:30:01.106Z,35.03
2019-03-21T15:34:08.340Z,35.25
2019-03-21T15:38:14.019Z,35.41
2019-03-21T15:42:19.727Z,36.12
2019-03-21T15:46:25.409Z,33.27
2019-03-21T15:50:33.020Z,32.57
2019-03-21T15:54:38.762Z,35.71
2019-03-21T15:58:45.161Z,35.32
2019-03-21T16:02:50.955Z,35.67
2019-03-21T16:06:56.575Z,32.29
2019-03-21T16:11:02.220Z,32.41
2019-03-21T16:15:09.309Z,32.65
2019-03-21T16:19:15.016Z,33.55
2019-03-21T16:23:20.678Z,36.66
2019-03-21T16:27:26.322Z,36.18
2019-03-21T16:31:31.960Z,34.38
2019-03-21T16:35:37.646Z,34.88
2019-03-21T16:39:43.258Z,35.40
2019-03-21T16:43:48.886Z,34.84
2019-03-21T16:47:54.622Z,35.98
2019-03-21T16:52:00.389Z,31.81
2019-03-21T16:56:06.374Z,37.79
2019-03-21T17:00:51.430Z,35.62
2019-03-21T17:05:15.905Z,34.07
2019-03-21T17:09:21.639Z,37.86
2019-03-21T17:13:27.400Z,36.05
2019-03-21T17:17:33.122Z,37.71
2019-03-21T17:21:38.831Z,38.51
2019-03-21T17:25:44.570Z,40.10
2019-03-21T17:29:50.197Z,42.77
2019-03-21T17:33:55.863Z,43.20
2019-03-21T17:42:21.636Z,47.51
2019-03-21T17:46:27.370Z,48.04
2019-03-21T17:50:33.029Z,47.66
2019-03-21T17:54:41.817Z,48.97
2019-03-21T18:07:47.246Z,51.53
2019-03-21T18:11:52.921Z,49.88
2019-03-21T18:15:58.667Z,51.11
2019-03-21T18:20:24.914Z,50.79
2019-03-21T18:24:30.686Z,52.23
2019-03-21T18:28:36.332Z,52.45
2019-03-21T18:32:42.072Z,50.25
2019-03-21T18:36:47.812Z,51.33
2019-03-21T18:40:53.530Z,51.60
2019-03-21T18:49:16.659Z,53.48
2019-03-21T18:53:22.344Z,53.05
2019-03-21T18:57:28.081Z,51.89
2019-03-21T19:01:34.374Z,52.65
2019-03-21T19:05:58.951Z,54.04
2019-03-21T19:10:05.632Z,54.63
2019-03-21T19:14:11.402Z,54.73
2019-03-21T19:18:17.118Z,55.49
2019-03-21T19:22:22.822Z,55.88
2019-03-21T19:26:28.710Z,56.19
2019-03-21T19:30:34.449Z,55.93
2019-03-21T19:34:40.185Z,58.35
2019-03-21T19:38:45.814Z,58.41
2019-03-21T19:47:29.858Z,59.67
2019-03-21T19:51:36.121Z,58.74
2019-03-21T19:55:41.868Z,59.13
2019-03-21T19:59:47.660Z,60.65
2019-03-21T20:03:53.332Z,61.85
2019-03-21T20:07:59.111Z,63.36
2019-03-21T20:12:05.008Z,63.69
2019-03-21T20:16:10.938Z,63.90
2019-03-21T20:20:17.080Z,63.05
2019-03-21T20:24:24.366Z,63.30
2019-03-21T20:28:30.192Z,63.35
2019-03-21T20:32:35.955Z,64.08
2019-03-21T20:36:41.679Z,63.17
2019-03-21T20:40:47.496Z,63.87
2019-03-21T20:44:53.192Z,63.00
2019-03-21T20:48:56.714Z,63.14
2019-03-21T20:53:02.610Z,64.53
2019-03-21T20:57:08.431Z,64.79
2019-03-21T21:01:14.264Z,65.00
2019-03-21T21:05:22.799Z,63.08
2019-03-21T21:09:32.764Z,63.71
2019-03-21T21:13:38.481Z,64.41
2019-03-21T21:17:44.231Z,63.78
2019-03-21T21:26:19.926Z,65.65
2019-03-21T21:30:38.040Z,65.69
2019-03-21T21:34:38.624Z,66.04
2019-03-21T21:38:44.379Z,67.41
2019-03-21T21:42:50.141Z,66.79
2019-03-21T21:51:12.974Z,66.54
2019-03-21T21:59:57.651Z,69.77
2019-03-21T22:04:05.011Z,69.96
2019-03-21T22:08:16.250Z,72.96
2019-03-21T22:12:21.887Z,72.48
2019-03-21T22:16:28.084Z,72.86
2019-03-21T22:20:33.722Z,73.35
2019-03-21T22:24:39.412Z,73.38
2019-03-21T22:28:45.108Z,74.01
2019-03-21T22:32:50.716Z,73.17
2019-03-21T22:36:56.487Z,73.81
2019-03-21T22:41:03.884Z,72.66
2019-03-21T22:49:47.630Z,71.99
2019-03-21T22:53:53.410Z,73.32
2019-03-21T22:57:59.289Z,74.09
2019-03-21T23:06:21.613Z,73.19
2019-03-21T23:10:27.285Z,74.03
2019-03-21T23:14:33.005Z,74.37
2019-03-21T23:18:38.649Z,74.91
2019-03-21T23:22:44.581Z,75.74
2019-03-21T23:26:53.153Z,77.49
2019-03-21T23:31:16.716Z,78.23
2019-03-21T23:35:41.219Z,77.82
2019-03-21T23:39:46.883Z,78.02
2019-03-21T23:43:52.617Z,78.27
2019-03-21T23:48:09.358Z,78.83
2019-03-21T23:52:15.034Z,78.83
2019-03-21T23:56:20.684Z,79.23
